sensor_id;sensor_type;location;lat;lon;timestamp;P1;durP1;ratioP1;P2;durP2;ratioP2
21488;SDS011;10906;45.194;5.684;2023-06-10T05:01:15;8.80;;;7.85;;
21488;SDS011;10906;45.194;5.684;2023-06-10T05:04:00;9.57;;;8.00;;
21488;SDS011;10906;45.194;5.684;2023-06-10T05:06:44;10.05;;;7.47;;
21488;SDS011;10906;45.194;5.684;2023-06-10T05:09:28;10.50;;;7.97;;
21488;SDS011;10906;45.194;5.684;2023-06-10T05:12:12;12.38;;;7.45;;
21488;SDS011;10906;45.194;5.684;2023-06-10T05:14:56;8.90;;;8.05;;
21488;SDS011;10906;45.194;5.684;2023-06-10T05:17:40;10.75;;;7.65;;
21488;SDS011;10906;45.194;5.684;2023-06-10T05:20:25;9.98;;;7.43;;
21488;SDS011;10906;45.194;5.684;2023-06-10T05:23:10;8.02;;;7.07;;
21488;SDS011;10906;45.194;5.684;2023-06-10T05:25:55;8.88;;;7.18;;
21488;SDS011;10906;45.194;5.684;2023-06-10T05:28:39;10.32;;;7.75;;
21488;SDS011;10906;45.194;5.684;2023-06-10T05:31:26;11.52;;;6.93;;
21488;SDS011;10906;45.194;5.684;2023-06-10T05:34:10;11.07;;;7.45;;
21488;SDS011;10906;45.194;5.684;2023-06-10T05:36:54;10.23;;;7.40;;
21488;SDS011;10906;45.194;5.684;2023-06-10T05:39:38;11.25;;;7.40;;
21488;SDS011;10906;45.194;5.684;2023-06-10T05:42:23;10.70;;;6.85;;
21488;SDS011;10906;45.194;5.684;2023-06-10T05:45:08;12.88;;;7.18;;
21488;SDS011;10906;45.194;5.684;2023-06-10T05:47:57;8.07;;;6.97;;
21488;SDS011;10906;45.194;5.684;2023-06-10T05:50:41;12.13;;;7.65;;
21488;SDS011;10906;45.194;5.684;2023-06-10T05:53:28;9.18;;;7.47;;
21488;SDS011;10906;45.194;5.684;2023-06-10T05:56:14;10.10;;;7.85;;
21488;SDS011;10906;45.194;5.684;2023-06-10T05:58:58;8.63;;;7.18;;
21488;SDS011;10906;45.194;5.684;2023-06-10T06:01:43;11.13;;;7.28;;
21488;SDS011;10906;45.194;5.684;2023-06-10T06:04:28;11.25;;;7.78;;
21488;SDS011;10906;45.194;5.684;2023-06-10T06:07:14;11.48;;;8.60;;
21488;SDS011;10906;45.194;5.684;2023-06-10T06:09:59;8.27;;;7.30;;
21488;SDS011;10906;45.194;5.684;2023-06-10T06:12:43;14.02;;;7.95;;
21488;SDS011;10906;45.194;5.684;2023-06-10T06:15:28;13.13;;;7.85;;
21488;SDS011;10906;45.194;5.684;2023-06-10T06:18:12;12.20;;;7.18;;
21488;SDS011;10906;45.194;5.684;2023-06-10T06:20:57;12.07;;;8.10;;
21488;SDS011;10906;45.194;5.684;2023-06-10T06:23:41;9.90;;;7.68;;
21488;SDS011;10906;45.194;5.684;2023-06-10T06:26:26;10.82;;;8.30;;
21488;SDS011;10906;45.194;5.684;2023-06-10T06:29:10;8.15;;;7.30;;
21488;SDS011;10906;45.194;5.684;2023-06-10T06:32:01;10.73;;;8.68;;
21488;SDS011;10906;45.194;5.684;2023-06-10T06:34:46;12.73;;;7.75;;
21488;SDS011;10906;45.194;5.684;2023-06-10T06:56:14;10.60;;;7.18;;
21488;SDS011;10906;45.194;5.684;2023-06-10T06:58:59;9.70;;;7.30;;
21488;SDS011;10906;45.194;5.684;2023-06-10T07:01:43;13.23;;;7.63;;
21488;SDS011;10906;45.194;5.684;2023-06-10T07:04:41;9.02;;;7.20;;
21488;SDS011;10906;45.194;5.684;2023-06-10T07:07:26;10.32;;;7.80;;
21488;SDS011;10906;45.194;5.684;2023-06-10T07:10:11;10.55;;;7.80;;
21488;SDS011;10906;45.194;5.684;2023-06-10T07:13:07;8.50;;;7.60;;
21488;SDS011;10906;45.194;5.684;2023-06-10T07:15:52;10.90;;;8.43;;
21488;SDS011;10906;45.194;5.684;2023-06-10T07:18:37;12.65;;;8.57;;
21488;SDS011;10906;45.194;5.684;2023-06-10T07:21:22;10.65;;;7.93;;
21488;SDS011;10906;45.194;5.684;2023-06-10T07:24:06;10.55;;;8.30;;
21488;SDS011;10906;45.194;5.684;2023-06-10T07:26:51;11.48;;;8.15;;
21488;SDS011;10906;45.194;5.684;2023-06-10T07:29:36;12.70;;;8.68;;
21488;SDS011;10906;45.194;5.684;2023-06-10T07:32:21;11.20;;;9.38;;
21488;SDS011;10906;45.194;5.684;2023-06-10T07:35:08;14.20;;;9.20;;
21488;SDS011;10906;45.194;5.684;2023-06-10T07:37:54;11.45;;;9.45;;
21488;SDS011;10906;45.194;5.684;2023-06-10T07:40:39;11.65;;;9.18;;
21488;SDS011;10906;45.194;5.684;2023-06-10T07:43:33;12.70;;;9.82;;
21488;SDS011;10906;45.194;5.684;2023-06-10T07:46:24;10.65;;;9.18;;
21488;SDS011;10906;45.194;5.684;2023-06-10T07:49:08;9.02;;;8.13;;
21488;SDS011;10906;45.194;5.684;2023-06-10T07:51:54;10.82;;;8.95;;
21488;SDS011;10906;45.194;5.684;2023-06-10T07:54:42;13.75;;;9.20;;
21488;SDS011;10906;45.194;5.684;2023-06-10T07:57:26;12.05;;;9.30;;
21488;SDS011;10906;45.194;5.684;2023-06-10T08:00:11;9.50;;;8.20;;
21488;SDS011;10906;45.194;5.684;2023-06-10T08:02:56;11.43;;;8.43;;
21488;SDS011;10906;45.194;5.684;2023-06-10T08:05:43;8.93;;;8.00;;
21488;SDS011;10906;45.194;5.684;2023-06-10T08:08:27;9.25;;;7.25;;
21488;SDS011;10906;45.194;5.684;2023-06-10T08:11:14;10.23;;;7.07;;
21488;SDS011;10906;45.194;5.684;2023-06-10T08:13:59;11.80;;;7.45;;
21488;SDS011;10906;45.194;5.684;2023-06-10T08:16:44;10.88;;;6.70;;
21488;SDS011;10906;45.194;5.684;2023-06-10T08:19:29;8.57;;;6.30;;
21488;SDS011;10906;45.194;5.684;2023-06-10T08:22:14;7.10;;;5.93;;
21488;SDS011;10906;45.194;5.684;2023-06-10T08:24:58;10.50;;;6.13;;
21488;SDS011;10906;45.194;5.684;2023-06-10T08:27:44;9.10;;;6.65;;
21488;SDS011;10906;45.194;5.684;2023-06-10T08:30:28;8.50;;;5.60;;
21488;SDS011;10906;45.194;5.684;2023-06-10T08:33:14;8.23;;;6.10;;
21488;SDS011;10906;45.194;5.684;2023-06-10T08:35:58;9.00;;;5.82;;
21488;SDS011;10906;45.194;5.684;2023-06-10T08:38:43;7.40;;;6.30;;
21488;SDS011;10906;45.194;5.684;2023-06-10T08:41:28;10.63;;;6.57;;
21488;SDS011;10906;45.194;5.684;2023-06-10T08:44:19;11.45;;;5.78;;
21488;SDS011;10906;45.194;5.684;2023-06-10T08:47:14;8.73;;;6.43;;
21488;SDS011;10906;45.194;5.684;2023-06-10T08:50:02;7.00;;;5.85;;
21488;SDS011;10906;45.194;5.684;2023-06-10T08:52:51;7.65;;;5.93;;
21488;SDS011;10906;45.194;5.684;2023-06-10T08:55:38;8.25;;;6.35;;
21488;SDS011;10906;45.194;5.684;2023-06-10T08:58:26;7.60;;;5.25;;
21488;SDS011;10906;45.194;5.684;2023-06-10T09:01:19;6.55;;;4.32;;
21488;SDS011;10906;45.194;5.684;2023-06-10T09:04:04;6.22;;;4.60;;
21488;SDS011;10906;45.194;5.684;2023-06-10T09:06:48;9.23;;;5.20;;
21488;SDS011;10906;45.194;5.684;2023-06-10T09:09:34;9.65;;;4.78;;
21488;SDS011;10906;45.194;5.684;2023-06-10T09:12:19;7.80;;;4.40;;
21488;SDS011;10906;45.194;5.684;2023-06-10T09:15:04;5.90;;;4.45;;
21488;SDS011;10906;45.194;5.684;2023-06-10T09:17:50;7.35;;;4.57;;
21488;SDS011;10906;45.194;5.684;2023-06-10T09:20:35;6.75;;;4.15;;
21488;SDS011;10906;45.194;5.684;2023-06-10T09:23:20;6.32;;;3.90;;
21488;SDS011;10906;45.194;5.684;2023-06-10T09:26:08;4.63;;;3.17;;
21488;SDS011;10906;45.194;5.684;2023-06-10T09:29:05;5.00;;;3.75;;
21488;SDS011;10906;45.194;5.684;2023-06-10T09:31:52;5.88;;;3.55;;
21488;SDS011;10906;45.194;5.684;2023-06-10T09:34:37;5.13;;;3.90;;
21488;SDS011;10906;45.194;5.684;2023-06-10T09:37:22;8.70;;;4.20;;
21488;SDS011;10906;45.194;5.684;2023-06-10T09:40:07;5.63;;;4.10;;
21488;SDS011;10906;45.194;5.684;2023-06-10T09:42:54;5.15;;;3.72;;
21488;SDS011;10906;45.194;5.684;2023-06-10T09:45:41;4.65;;;3.28;;
21488;SDS011;10906;45.194;5.684;2023-06-10T09:48:27;5.40;;;2.95;;
21488;SDS011;10906;45.194;5.684;2023-06-10T09:51:12;5.00;;;3.60;;
21488;SDS011;10906;45.194;5.684;2023-06-10T09:53:57;3.45;;;3.15;;
21488;SDS011;10906;45.194;5.684;2023-06-10T09:56:42;9.73;;;3.80;;
21488;SDS011;10906;45.194;5.684;2023-06-10T09:59:30;7.22;;;4.25;;
21488;SDS011;10906;45.194;5.684;2023-06-10T10:02:18;6.05;;;3.78;;
21488;SDS011;10906;45.194;5.684;2023-06-10T10:05:03;6.13;;;3.78;;
21488;SDS011;10906;45.194;5.684;2023-06-10T10:07:48;8.23;;;3.72;;
21488;SDS011;10906;45.194;5.684;2023-06-10T10:10:33;4.25;;;3.22;;
21488;SDS011;10906;45.194;5.684;2023-06-10T10:13:18;7.07;;;3.28;;
21488;SDS011;10906;45.194;5.684;2023-06-10T10:16:11;11.52;;;3.70;;
21488;SDS011;10906;45.194;5.684;2023-06-10T10:19:04;4.97;;;3.22;;
21488;SDS011;10906;45.194;5.684;2023-06-10T10:21:54;12.10;;;3.38;;
21488;SDS011;10906;45.194;5.684;2023-06-10T10:24:42;8.63;;;3.70;;
21488;SDS011;10906;45.194;5.684;2023-06-10T10:27:39;4.63;;;3.05;;
21488;SDS011;10906;45.194;5.684;2023-06-10T10:30:45;4.03;;;2.42;;
21488;SDS011;10906;45.194;5.684;2023-06-10T10:36:29;3.13;;;2.50;;
21488;SDS011;10906;45.194;5.684;2023-06-10T10:39:14;6.72;;;2.47;;
21488;SDS011;10906;45.194;5.684;2023-06-10T10:41:59;3.65;;;2.45;;
21488;SDS011;10906;45.194;5.684;2023-06-10T10:44:44;2.67;;;1.98;;
21488;SDS011;10906;45.194;5.684;2023-06-10T10:47:29;3.08;;;2.30;;
21488;SDS011;10906;45.194;5.684;2023-06-10T10:50:17;4.35;;;2.20;;
21488;SDS011;10906;45.194;5.684;2023-06-10T10:53:02;6.43;;;2.63;;
21488;SDS011;10906;45.194;5.684;2023-06-10T10:55:58;4.43;;;2.10;;
21488;SDS011;10906;45.194;5.684;2023-06-10T11:01:56;2.40;;;1.83;;
21488;SDS011;10906;45.194;5.684;2023-06-10T11:04:45;4.22;;;2.40;;
21488;SDS011;10906;45.194;5.684;2023-06-10T11:07:31;2.72;;;2.40;;
21488;SDS011;10906;45.194;5.684;2023-06-10T11:10:16;3.45;;;2.45;;
21488;SDS011;10906;45.194;5.684;2023-06-10T11:13:14;3.65;;;2.40;;
21488;SDS011;10906;45.194;5.684;2023-06-10T11:16:01;2.90;;;1.98;;
21488;SDS011;10906;45.194;5.684;2023-06-10T11:18:53;5.38;;;2.03;;
21488;SDS011;10906;45.194;5.684;2023-06-10T11:24:49;3.53;;;2.17;;
21488;SDS011;10906;45.194;5.684;2023-06-10T11:27:37;2.65;;;2.08;;
21488;SDS011;10906;45.194;5.684;2023-06-10T11:30:25;5.10;;;2.00;;
21488;SDS011;10906;45.194;5.684;2023-06-10T11:33:11;5.05;;;2.15;;
21488;SDS011;10906;45.194;5.684;2023-06-10T11:36:00;2.72;;;1.80;;
21488;SDS011;10906;45.194;5.684;2023-06-10T11:38:44;5.43;;;2.03;;
21488;SDS011;10906;45.194;5.684;2023-06-10T11:41:29;4.93;;;2.10;;
21488;SDS011;10906;45.194;5.684;2023-06-10T11:44:18;7.65;;;1.55;;
21488;SDS011;10906;45.194;5.684;2023-06-10T11:47:03;3.60;;;1.90;;
21488;SDS011;10906;45.194;5.684;2023-06-10T11:49:58;2.28;;;1.67;;
21488;SDS011;10906;45.194;5.684;2023-06-10T11:52:42;3.85;;;1.73;;
21488;SDS011;10906;45.194;5.684;2023-06-10T11:55:40;2.15;;;1.80;;
21488;SDS011;10906;45.194;5.684;2023-06-10T11:58:26;2.75;;;1.80;;
21488;SDS011;10906;45.194;5.684;2023-06-10T12:01:18;2.67;;;1.90;;
21488;SDS011;10906;45.194;5.684;2023-06-10T12:04:06;5.97;;;2.05;;
21488;SDS011;10906;45.194;5.684;2023-06-10T12:06:53;5.80;;;2.08;;
21488;SDS011;10906;45.194;5.684;2023-06-10T12:09:39;5.30;;;2.42;;
21488;SDS011;10906;45.194;5.684;2023-06-10T12:12:23;3.30;;;2.30;;
21488;SDS011;10906;45.194;5.684;2023-06-10T12:15:09;4.60;;;2.67;;
21488;SDS011;10906;45.194;5.684;2023-06-10T12:17:54;5.20;;;2.55;;
21488;SDS011;10906;45.194;5.684;2023-06-10T12:20:39;5.35;;;2.63;;
21488;SDS011;10906;45.194;5.684;2023-06-10T12:23:23;4.10;;;2.35;;
21488;SDS011;10906;45.194;5.684;2023-06-10T12:26:07;8.20;;;2.35;;
21488;SDS011;10906;45.194;5.684;2023-06-10T12:28:52;2.72;;;2.33;;
21488;SDS011;10906;45.194;5.684;2023-06-10T12:35:03;3.78;;;2.55;;
21488;SDS011;10906;45.194;5.684;2023-06-10T12:37:55;5.70;;;2.25;;
21488;SDS011;10906;45.194;5.684;2023-06-10T12:40:40;5.60;;;2.40;;
21488;SDS011;10906;45.194;5.684;2023-06-10T12:43:25;3.08;;;2.08;;
21488;SDS011;10906;45.194;5.684;2023-06-10T12:46:10;3.17;;;2.03;;
21488;SDS011;10906;45.194;5.684;2023-06-10T12:48:56;4.22;;;2.03;;
21488;SDS011;10906;45.194;5.684;2023-06-10T12:51:44;3.63;;;1.80;;
21488;SDS011;10906;45.194;5.684;2023-06-10T12:54:31;2.42;;;1.77;;
21488;SDS011;10906;45.194;5.684;2023-06-10T12:57:16;2.10;;;1.67;;
21488;SDS011;10906;45.194;5.684;2023-06-10T13:00:01;2.55;;;1.73;;
21488;SDS011;10906;45.194;5.684;2023-06-10T13:02:48;3.22;;;1.92;;
21488;SDS011;10906;45.194;5.684;2023-06-10T13:05:34;3.45;;;1.80;;
21488;SDS011;10906;45.194;5.684;2023-06-10T13:08:22;3.10;;;2.00;;
21488;SDS011;10906;45.194;5.684;2023-06-10T13:11:06;3.28;;;2.10;;
21488;SDS011;10906;45.194;5.684;2023-06-10T13:13:51;3.25;;;1.98;;
21488;SDS011;10906;45.194;5.684;2023-06-10T13:16:36;2.50;;;1.92;;
21488;SDS011;10906;45.194;5.684;2023-06-10T13:19:21;4.20;;;2.08;;
21488;SDS011;10906;45.194;5.684;2023-06-10T13:22:06;1.88;;;1.67;;
21488;SDS011;10906;45.194;5.684;2023-06-10T13:24:50;3.03;;;1.75;;
21488;SDS011;10906;45.194;5.684;2023-06-10T13:27:38;2.90;;;1.70;;
21488;SDS011;10906;45.194;5.684;2023-06-10T13:30:25;2.50;;;1.92;;
21488;SDS011;10906;45.194;5.684;2023-06-10T13:33:10;2.90;;;2.00;;
21488;SDS011;10906;45.194;5.684;2023-06-10T13:35:54;3.53;;;1.85;;
21488;SDS011;10906;45.194;5.684;2023-06-10T13:38:39;5.10;;;2.25;;
21488;SDS011;10906;45.194;5.684;2023-06-10T13:41:23;3.80;;;2.17;;
21488;SDS011;10906;45.194;5.684;2023-06-10T13:44:08;4.43;;;2.33;;
21488;SDS011;10906;45.194;5.684;2023-06-10T13:46:53;2.67;;;1.85;;
21488;SDS011;10906;45.194;5.684;2023-06-10T13:49:37;4.43;;;2.40;;
21488;SDS011;10906;45.194;5.684;2023-06-10T13:52:25;3.08;;;2.15;;
21488;SDS011;10906;45.194;5.684;2023-06-10T13:55:09;3.05;;;2.08;;
21488;SDS011;10906;45.194;5.684;2023-06-10T13:57:54;4.60;;;2.30;;
21488;SDS011;10906;45.194;5.684;2023-06-10T14:00:41;4.60;;;2.50;;
21488;SDS011;10906;45.194;5.684;2023-06-10T14:03:29;4.55;;;2.05;;
21488;SDS011;10906;45.194;5.684;2023-06-10T14:06:31;5.25;;;2.70;;
21488;SDS011;10906;45.194;5.684;2023-06-10T14:09:16;4.05;;;2.50;;
21488;SDS011;10906;45.194;5.684;2023-06-10T14:12:01;4.97;;;2.25;;
21488;SDS011;10906;45.194;5.684;2023-06-10T14:14:47;3.90;;;2.17;;
21488;SDS011;10906;45.194;5.684;2023-06-10T14:17:31;3.03;;;2.13;;
21488;SDS011;10906;45.194;5.684;2023-06-10T14:20:16;4.35;;;2.03;;
21488;SDS011;10906;45.194;5.684;2023-06-10T14:23:00;4.32;;;2.03;;
21488;SDS011;10906;45.194;5.684;2023-06-10T14:25:45;5.22;;;2.30;;
21488;SDS011;10906;45.194;5.684;2023-06-10T14:28:30;2.45;;;2.22;;
21488;SDS011;10906;45.194;5.684;2023-06-10T14:31:14;4.03;;;2.22;;
21488;SDS011;10906;45.194;5.684;2023-06-10T14:33:59;2.30;;;1.70;;
21488;SDS011;10906;45.194;5.684;2023-06-10T14:36:43;3.17;;;1.80;;
21488;SDS011;10906;45.194;5.684;2023-06-10T14:39:28;4.85;;;2.17;;
21488;SDS011;10906;45.194;5.684;2023-06-10T14:42:12;6.85;;;2.10;;
21488;SDS011;10906;45.194;5.684;2023-06-10T14:44:57;2.72;;;1.90;;
21488;SDS011;10906;45.194;5.684;2023-06-10T14:47:44;5.63;;;2.22;;
21488;SDS011;10906;45.194;5.684;2023-06-10T14:50:30;3.42;;;2.10;;
21488;SDS011;10906;45.194;5.684;2023-06-10T14:53:15;4.75;;;2.10;;
21488;SDS011;10906;45.194;5.684;2023-06-10T14:56:00;2.97;;;2.08;;
21488;SDS011;10906;45.194;5.684;2023-06-10T14:58:45;5.28;;;2.40;;
21488;SDS011;10906;45.194;5.684;2023-06-10T15:01:29;3.78;;;2.20;;
21488;SDS011;10906;45.194;5.684;2023-06-10T15:04:14;3.70;;;2.22;;
21488;SDS011;10906;45.194;5.684;2023-06-10T15:06:59;3.67;;;2.17;;
21488;SDS011;10906;45.194;5.684;2023-06-10T15:09:49;3.00;;;2.10;;
21488;SDS011;10906;45.194;5.684;2023-06-10T15:12:34;3.95;;;2.22;;
21488;SDS011;10906;45.194;5.684;2023-06-10T15:15:23;2.60;;;2.40;;
21488;SDS011;10906;45.194;5.684;2023-06-10T15:18:10;3.53;;;2.10;;
21488;SDS011;10906;45.194;5.684;2023-06-10T15:20:54;4.47;;;2.00;;
21488;SDS011;10906;45.194;5.684;2023-06-10T15:23:38;3.53;;;1.80;;
21488;SDS011;10906;45.194;5.684;2023-06-10T15:26:48;2.70;;;1.98;;
21488;SDS011;10906;45.194;5.684;2023-06-10T15:29:32;2.25;;;1.70;;
21488;SDS011;10906;45.194;5.684;2023-06-10T15:32:35;2.75;;;2.20;;
21488;SDS011;10906;45.194;5.684;2023-06-10T15:35:25;2.17;;;1.42;;
21488;SDS011;10906;45.194;5.684;2023-06-10T15:38:35;4.20;;;2.08;;
21488;SDS011;10906;45.194;5.684;2023-06-10T15:45:31;4.88;;;1.98;;
21488;SDS011;10906;45.194;5.684;2023-06-10T15:48:16;3.75;;;1.92;;
21488;SDS011;10906;45.194;5.684;2023-06-10T15:51:00;4.68;;;1.85;;
21488;SDS011;10906;45.194;5.684;2023-06-10T15:53:45;3.35;;;1.80;;
21488;SDS011;10906;45.194;5.684;2023-06-10T15:56:33;2.13;;;1.70;;
21488;SDS011;10906;45.194;5.684;2023-06-10T15:59:18;3.00;;;2.00;;
21488;SDS011;10906;45.194;5.684;2023-06-10T16:02:05;2.65;;;2.35;;
21488;SDS011;10906;45.194;5.684;2023-06-10T16:04:50;2.63;;;1.95;;
21488;SDS011;10906;45.194;5.684;2023-06-10T16:07:34;3.33;;;2.40;;
21488;SDS011;10906;45.194;5.684;2023-06-10T16:10:19;3.47;;;2.03;;
21488;SDS011;10906;45.194;5.684;2023-06-10T16:13:05;2.88;;;2.40;;
21488;SDS011;10906;45.194;5.684;2023-06-10T16:15:53;2.65;;;1.85;;
21488;SDS011;10906;45.194;5.684;2023-06-10T16:18:38;2.63;;;2.25;;
21488;SDS011;10906;45.194;5.684;2023-06-10T16:21:22;2.38;;;2.00;;
21488;SDS011;10906;45.194;5.684;2023-06-10T16:24:07;2.47;;;1.98;;
21488;SDS011;10906;45.194;5.684;2023-06-10T16:26:52;5.60;;;2.10;;
21488;SDS011;10906;45.194;5.684;2023-06-10T16:29:36;2.88;;;2.20;;
21488;SDS011;10906;45.194;5.684;2023-06-10T16:32:21;2.28;;;2.08;;
21488;SDS011;10906;45.194;5.684;2023-06-10T16:35:05;4.25;;;2.13;;
21488;SDS011;10906;45.194;5.684;2023-06-10T16:37:50;2.88;;;2.20;;
21488;SDS011;10906;45.194;5.684;2023-06-10T16:40:34;3.38;;;2.10;;
21488;SDS011;10906;45.194;5.684;2023-06-10T16:43:19;2.58;;;1.80;;
21488;SDS011;10906;45.194;5.684;2023-06-10T16:46:06;4.18;;;1.95;;
21488;SDS011;10906;45.194;5.684;2023-06-10T16:48:50;3.05;;;1.65;;
21488;SDS011;10906;45.194;5.684;2023-06-10T16:51:35;2.42;;;1.77;;
21488;SDS011;10906;45.194;5.684;2023-06-10T16:54:20;4.63;;;2.17;;
21488;SDS011;10906;45.194;5.684;2023-06-10T16:57:04;5.97;;;1.92;;
21488;SDS011;10906;45.194;5.684;2023-06-10T16:59:49;1.55;;;1.45;;
21488;SDS011;10906;45.194;5.684;2023-06-10T17:02:32;2.55;;;1.80;;
21488;SDS011;10906;45.194;5.684;2023-06-10T17:05:17;3.15;;;1.58;;
21488;SDS011;10906;45.194;5.684;2023-06-10T17:08:02;2.13;;;1.77;;
21488;SDS011;10906;45.194;5.684;2023-06-10T17:13:30;2.20;;;1.23;;
21488;SDS011;10906;45.194;5.684;2023-06-10T17:16:14;1.38;;;1.27;;
21488;SDS011;10906;45.194;5.684;2023-06-10T17:18:59;1.52;;;1.42;;
21488;SDS011;10906;45.194;5.684;2023-06-10T17:21:43;4.43;;;1.73;;
21488;SDS011;10906;45.194;5.684;2023-06-10T17:24:28;2.25;;;1.60;;
21488;SDS011;10906;45.194;5.684;2023-06-10T17:27:13;2.30;;;1.60;;
21488;SDS011;10906;45.194;5.684;2023-06-10T17:29:57;3.65;;;1.98;;
21488;SDS011;10906;45.194;5.684;2023-06-10T17:32:42;1.98;;;1.75;;
21488;SDS011;10906;45.194;5.684;2023-06-10T17:35:27;2.75;;;1.58;;
21488;SDS011;10906;45.194;5.684;2023-06-10T17:38:15;5.25;;;1.77;;
21488;SDS011;10906;45.194;5.684;2023-06-10T17:41:00;4.00;;;1.60;;
21488;SDS011;10906;45.194;5.684;2023-06-10T17:43:46;2.58;;;1.65;;
21488;SDS011;10906;45.194;5.684;2023-06-10T17:46:31;3.58;;;1.65;;
21488;SDS011;10906;45.194;5.684;2023-06-10T17:49:16;2.00;;;1.80;;
21488;SDS011;10906;45.194;5.684;2023-06-10T17:52:00;2.95;;;1.90;;
21488;SDS011;10906;45.194;5.684;2023-06-10T17:54:45;4.60;;;2.13;;
21488;SDS011;10906;45.194;5.684;2023-06-10T17:57:30;3.05;;;2.15;;
21488;SDS011;10906;45.194;5.684;2023-06-10T18:00:15;3.38;;;2.20;;
21488;SDS011;10906;45.194;5.684;2023-06-10T18:03:00;4.35;;;2.47;;
21488;SDS011;10906;45.194;5.684;2023-06-10T18:05:45;4.47;;;2.10;;
21488;SDS011;10906;45.194;5.684;2023-06-10T18:08:29;2.25;;;1.98;;
21488;SDS011;10906;45.194;5.684;2023-06-10T18:11:15;2.55;;;2.25;;
21488;SDS011;10906;45.194;5.684;2023-06-10T18:14:00;4.18;;;2.42;;
21488;SDS011;10906;45.194;5.684;2023-06-10T18:16:44;4.05;;;2.38;;
21488;SDS011;10906;45.194;5.684;2023-06-10T18:19:29;5.68;;;2.90;;
21488;SDS011;10906;45.194;5.684;2023-06-10T18:22:13;4.03;;;2.40;;
21488;SDS011;10906;45.194;5.684;2023-06-10T18:24:58;5.53;;;2.63;;
21488;SDS011;10906;45.194;5.684;2023-06-10T18:27:45;6.40;;;2.55;;
21488;SDS011;10906;45.194;5.684;2023-06-10T18:30:29;5.13;;;2.33;;
21488;SDS011;10906;45.194;5.684;2023-06-10T18:33:14;4.65;;;2.45;;
21488;SDS011;10906;45.194;5.684;2023-06-10T18:35:59;5.32;;;2.50;;
21488;SDS011;10906;45.194;5.684;2023-06-10T18:38:43;4.43;;;2.42;;
21488;SDS011;10906;45.194;5.684;2023-06-10T18:41:29;8.98;;;2.90;;
21488;SDS011;10906;45.194;5.684;2023-06-10T18:44:13;4.65;;;2.55;;
21488;SDS011;10906;45.194;5.684;2023-06-10T18:47:11;10.30;;;2.97;;
21488;SDS011;10906;45.194;5.684;2023-06-10T18:49:59;4.63;;;2.60;;
21488;SDS011;10906;45.194;5.684;2023-06-10T18:53:15;5.50;;;2.70;;
21488;SDS011;10906;45.194;5.684;2023-06-10T18:55:59;5.35;;;2.58;;
21488;SDS011;10906;45.194;5.684;2023-06-10T19:01:33;5.85;;;2.63;;
21488;SDS011;10906;45.194;5.684;2023-06-10T19:04:17;3.78;;;2.70;;
21488;SDS011;10906;45.194;5.684;2023-06-10T19:07:04;7.57;;;2.47;;
21488;SDS011;10906;45.194;5.684;2023-06-10T19:09:49;5.93;;;2.90;;
21488;SDS011;10906;45.194;5.684;2023-06-10T19:12:34;4.47;;;2.92;;
21488;SDS011;10906;45.194;5.684;2023-06-10T19:15:18;3.95;;;2.75;;
21488;SDS011;10906;45.194;5.684;2023-06-10T19:18:03;5.00;;;3.20;;
21488;SDS011;10906;45.194;5.684;2023-06-10T19:20:47;4.20;;;2.67;;
21488;SDS011;10906;45.194;5.684;2023-06-10T19:23:32;4.45;;;2.70;;
21488;SDS011;10906;45.194;5.684;2023-06-10T19:26:17;3.88;;;3.00;;
21488;SDS011;10906;45.194;5.684;2023-06-10T19:29:01;5.45;;;2.55;;
21488;SDS011;10906;45.194;5.684;2023-06-10T19:31:46;4.90;;;3.00;;
21488;SDS011;10906;45.194;5.684;2023-06-10T19:34:30;5.07;;;2.70;;
21488;SDS011;10906;45.194;5.684;2023-06-10T19:37:14;3.83;;;2.63;;
21488;SDS011;10906;45.194;5.684;2023-06-10T19:40:02;7.43;;;3.10;;
21488;SDS011;10906;45.194;5.684;2023-06-10T19:42:53;4.30;;;3.20;;
21488;SDS011;10906;45.194;5.684;2023-06-10T19:45:38;4.68;;;3.03;;
21488;SDS011;10906;45.194;5.684;2023-06-10T19:48:22;6.43;;;3.13;;
21488;SDS011;10906;45.194;5.684;2023-06-10T19:51:07;4.68;;;2.95;;
21488;SDS011;10906;45.194;5.684;2023-06-10T19:53:51;5.28;;;3.65;;
21488;SDS011;10906;45.194;5.684;2023-06-10T19:56:36;6.78;;;4.13;;
21488;SDS011;10906;45.194;5.684;2023-06-10T19:59:20;4.30;;;3.20;;
21488;SDS011;10906;45.194;5.684;2023-06-10T20:02:05;5.28;;;3.45;;
21488;SDS011;10906;45.194;5.684;2023-06-10T20:04:50;8.35;;;4.05;;
21488;SDS011;10906;45.194;5.684;2023-06-10T20:07:34;7.25;;;4.00;;
21488;SDS011;10906;45.194;5.684;2023-06-10T20:10:19;5.78;;;3.67;;
21488;SDS011;10906;45.194;5.684;2023-06-10T20:13:06;7.13;;;3.70;;
21488;SDS011;10906;45.194;5.684;2023-06-10T20:15:51;5.95;;;3.83;;
21488;SDS011;10906;45.194;5.684;2023-06-10T20:18:35;4.78;;;3.17;;
21488;SDS011;10906;45.194;5.684;2023-06-10T20:21:20;4.95;;;3.17;;
21488;SDS011;10906;45.194;5.684;2023-06-10T20:24:05;4.38;;;2.95;;
21488;SDS011;10906;45.194;5.684;2023-06-10T20:26:51;6.50;;;3.08;;
21488;SDS011;10906;45.194;5.684;2023-06-10T20:29:35;3.85;;;2.80;;
21488;SDS011;10906;45.194;5.684;2023-06-10T20:32:20;6.03;;;3.13;;
21488;SDS011;10906;45.194;5.684;2023-06-10T20:35:04;4.00;;;2.78;;
21488;SDS011;10906;45.194;5.684;2023-06-10T20:37:49;5.15;;;2.70;;
21488;SDS011;10906;45.194;5.684;2023-06-10T20:40:34;5.22;;;3.03;;
21488;SDS011;10906;45.194;5.684;2023-06-10T20:43:18;6.15;;;3.90;;
21488;SDS011;10906;45.194;5.684;2023-06-10T20:46:03;4.45;;;3.20;;
21488;SDS011;10906;45.194;5.684;2023-06-10T20:48:48;8.35;;;3.00;;
21488;SDS011;10906;45.194;5.684;2023-06-10T20:51:33;9.95;;;3.30;;
21488;SDS011;10906;45.194;5.684;2023-06-10T20:54:17;9.10;;;3.28;;
21488;SDS011;10906;45.194;5.684;2023-06-10T20:57:02;4.57;;;3.15;;
21488;SDS011;10906;45.194;5.684;2023-06-10T20:59:46;5.75;;;3.03;;
21488;SDS011;10906;45.194;5.684;2023-06-10T21:02:31;6.75;;;3.10;;
21488;SDS011;10906;45.194;5.684;2023-06-10T21:05:15;4.28;;;3.10;;
21488;SDS011;10906;45.194;5.684;2023-06-10T21:08:00;4.90;;;3.15;;
21488;SDS011;10906;45.194;5.684;2023-06-10T21:10:45;7.85;;;3.08;;
21488;SDS011;10906;45.194;5.684;2023-06-10T21:13:32;4.93;;;2.83;;
21488;SDS011;10906;45.194;5.684;2023-06-10T21:16:21;6.05;;;2.78;;
21488;SDS011;10906;45.194;5.684;2023-06-10T21:19:05;4.55;;;2.72;;
21488;SDS011;10906;45.194;5.684;2023-06-10T21:21:50;6.50;;;2.78;;
21488;SDS011;10906;45.194;5.684;2023-06-10T21:24:35;4.55;;;2.90;;
21488;SDS011;10906;45.194;5.684;2023-06-10T21:27:19;3.10;;;2.75;;
21488;SDS011;10906;45.194;5.684;2023-06-10T21:30:05;4.13;;;2.80;;
21488;SDS011;10906;45.194;5.684;2023-06-10T21:32:50;4.53;;;3.00;;
21488;SDS011;10906;45.194;5.684;2023-06-10T21:35:35;4.00;;;2.88;;
21488;SDS011;10906;45.194;5.684;2023-06-10T21:38:19;4.97;;;2.92;;
21488;SDS011;10906;45.194;5.684;2023-06-10T21:41:04;6.80;;;3.42;;
21488;SDS011;10906;45.194;5.684;2023-06-10T21:43:49;8.50;;;3.20;;
21488;SDS011;10906;45.194;5.684;2023-06-10T21:46:33;4.78;;;2.83;;
21488;SDS011;10906;45.194;5.684;2023-06-10T21:49:18;9.23;;;3.50;;
21488;SDS011;10906;45.194;5.684;2023-06-10T21:52:03;9.50;;;3.40;;
21488;SDS011;10906;45.194;5.684;2023-06-10T21:54:47;3.30;;;2.90;;
21488;SDS011;10906;45.194;5.684;2023-06-10T21:57:32;3.67;;;2.80;;
